• Join FlightAware (Why Join?)
  • Login
  • US Flag 
08:56PM EDT


 

Airport Tracker/Info


-or-


 

Live Flight TrackerFlight Track Log ✈ AAL1870 ✈ 23-Apr-2013 ✈ KLAX - KORD

Flight Track Log - Related Links

Times and Time Zones

All times are in EDT time to prevent confusion due to time zone crossing. See the AAL1870 flight status page for this flight to view local times or setup timezone preferences in your user account.

Time Position Orientation Groundspeed Altitude Reporting Facility
EDT Latitude Longitude Course Direction KTS MPH feet Rate Location/Type
08:42PM 33.9167 -118.5167 55° Northeast 272 313 4,600  Level Southern California TRACON
08:43PM 34.1497 -118.0340 59° Northeast  Level FlightAware Approximate
08:43PM 33.9008 -118.5819 254° West 275 316 7,500  Level Los Angeles Center
08:44PM 34.2217 -117.8899 59° Northeast  Level FlightAware Approximate
08:44PM 33.8361 -118.6225 207° Southwest 290 334 8,000  Level Los Angeles Center
08:45PM 34.3044 -117.7649 54° Northeast  Level FlightAware Approximate
08:45PM 33.8014 -118.5556 122° Southeast 279 321 8,600  Level Los Angeles Center
08:46PM 34.3800 -117.6234 59° Northeast  Level FlightAware Approximate
08:46PM 33.8711 -118.4808 42° Northeast 309 356 12,100  Level Los Angeles Center
08:47PM 34.4559 -117.4938 55° Northeast  Level FlightAware Approximate
08:47PM 33.9394 -118.4222 35° Northeast 337 388 14,200  Level Los Angeles Center
08:48PM 33.9983 -118.3203 55° Northeast 365 420 17,200 2,220 Climbing Los Angeles Center
08:49PM 34.0750 -118.1836 56° Northeast 410 472 18,900 1,860 Climbing Los Angeles Center
08:50PM 34.1464 -118.0553 56° Northeast 454 522 21,100 2,160 Climbing Los Angeles Center
08:51PM 34.2206 -117.9258 55° Northeast 465 535 23,400 1,920 Climbing Los Angeles Center
08:52PM 34.2942 -117.7936 56° Northeast 472 543 25,100 1,500 Climbing Los Angeles Center
08:53PM 34.3706 -117.6564 56° Northeast 487 560 26,600 1,680 Climbing Los Angeles Center
08:54PM 34.4511 -117.5100 56° Northeast 494 568 28,600 1,800 Climbing Los Angeles Center
08:55PM 34.5392 -117.3819 50° Northeast 499 574 30,400 1,680 Climbing Los Angeles Center
08:56PM 34.6281 -117.2564 49° Northeast 495 570 32,100 1,980 Climbing Los Angeles Center
08:57PM 34.7333 -117.1086 49° Northeast 488 562 34,500 1,920 Climbing Los Angeles Center
08:58PM 34.8183 -116.9889 49° Northeast 475 547 36,100 1,140 Climbing Los Angeles Center
08:59PM 34.9031 -116.8675 50° Northeast 473 544 37,100 840 Climbing Los Angeles Center
09:00PM 35.0081 -116.7211 49° Northeast 480 552 38,100 840 Climbing Los Angeles Center
09:01PM 35.0964 -116.5928 50° Northeast 490 564 38,900 420 Climbing Los Angeles Center
09:02PM 35.1844 -116.4664 50° Northeast 490 564 39,000  Climbing Los Angeles Center
09:03PM 35.2903 -116.3161 49° Northeast 487 560 39,000  Level Los Angeles Center
09:05PM 35.3933 -116.1642 50° Northeast 483 556 39,000  Level Los Angeles Center
09:06PM 35.4803 -116.0383 50° Northeast 485 558 39,000  Level Los Angeles Center
09:07PM 35.5667 -115.9136 50° Northeast 481 554 39,000  Level Los Angeles Center
09:08PM 35.6686 -115.7661 50° Northeast 486 559 39,000  Level Los Angeles Center
09:09PM 35.7542 -115.6397 50° Northeast 483 556 39,000  Level Los Angeles Center
09:10PM 35.8403 -115.5147 50° Northeast 482 555 39,000  Level Los Angeles Center
09:11PM 35.9261 -115.3867 50° Northeast 486 559 39,000  Level Los Angeles Center
09:12PM 36.0114 -115.2603 50° Northeast 484 557 39,000  Level Los Angeles Center
09:13PM 36.0856 -115.1203 57° Northeast 496 571 39,000  Level Los Angeles Center
09:14PM 36.1222 -114.9150 77° East 511 588 39,000  Level Los Angeles Center
09:15PM 36.1517 -114.7422 78° East 514 592 39,000  Level Los Angeles Center
09:16PM 36.1814 -114.5700 78° East 514 592 39,000  Level Los Angeles Center
09:17PM 36.2119 -114.3978 78° East 515 593 39,000  Level Los Angeles Center
09:18PM 36.2406 -114.2258 78° East 513 590 39,000  Level Los Angeles Center
09:19PM 36.2758 -114.0186 78° East 514 592 39,000  Level Los Angeles Center
09:20PM 36.3050 -113.8447 78° East 516 594 39,000  Level Los Angeles Center
09:21PM 36.3394 -113.6336 78° East 520 598 39,000  Level Los Angeles Center
09:22PM 36.3678 -113.4567 79° East 523 602 39,000  Level Los Angeles Center
09:23PM 36.3972 -113.2786 78° East 527 606 39,000  Level Los Angeles Center
09:24PM 36.4256 -113.0994 79° East 528 608 39,000  Level Los Angeles Center
09:25PM 36.4533 -112.9233 79° East 525 604 39,000  Level Los Angeles Center
09:26PM 36.4825 -112.7456 78° East 526 605 39,000  Level Los Angeles Center
09:28PM 36.5100 -112.5689 79° East 524 603 39,000  Level Los Angeles Center
09:29PM 36.5428 -112.3550 79° East 527 606 39,000  Level Los Angeles Center
09:30PM 36.5636 -112.2142 80° East 523 602 39,000  Level Los Angeles Center
09:31PM 36.5956 -112.0028 79° East 521 600 39,000  Level Los Angeles Center
09:31PM 36.6172 -111.8631 79° East 521 600 39,000  Level Denver Center
09:32PM 36.6428 -111.6858 80° East 523 602 39,000  Level Denver Center
09:33PM 36.6683 -111.5086 80° East 523 602 39,000  Level Denver Center
09:34PM 36.6939 -111.3289 80° East 528 608 39,000  Level Denver Center
09:35PM 36.7189 -111.1503 80° East 527 606 39,000  Level Denver Center
09:36PM 36.7458 -110.9675 80° East 534 615 39,000  Level Denver Center
09:37PM 36.7736 -110.7528 81° East 527 606 39,000  Level Denver Center
09:39PM 36.8003 -110.5728 79° East 530 610 39,000  Level Denver Center
09:40PM 36.8242 -110.3939 80° East 526 605 39,000  Level Denver Center
09:41PM 36.8489 -110.2117 80° East 534 615 39,000  Level Denver Center
09:42PM 36.8728 -110.0250 81° East 529 609 39,000  Level Denver Center
09:43PM 36.8956 -109.8506 81° East 530 610 39,000  Level Denver Center
09:44PM 36.9228 -109.6461 80° East 532 612 39,000  Level Denver Center
09:45PM 36.9456 -109.4703 81° East 533 613 39,000  Level Denver Center
09:46PM 36.9700 -109.2644 81° East 535 616 39,000  Level Denver Center
09:47PM 36.9925 -109.0892 81° East 533 613 39,000  Level Denver Center
09:48PM 37.0136 -108.9133 81° East 533 613 39,000  Level Denver Center
09:49PM 37.0381 -108.7081 81° East 533 613 39,000  Level Denver Center
09:50PM 37.0586 -108.5364 81° East 526 605 39,000  Level Denver Center
09:51PM 37.0825 -108.3383 81° East 515 593 39,000  Level Denver Center
09:52PM 37.1019 -108.1681 82° East 515 593 39,000  Level Denver Center
09:53PM 37.1244 -107.9689 82° East 518 596 39,000  Level Denver Center
09:54PM 37.1439 -107.7975 82° East 518 596 39,000  Level Denver Center
09:55PM 37.1636 -107.6261 82° East 520 598 39,000  Level Denver Center
09:56PM 37.1858 -107.4214 82° East 529 609 39,000  Level Denver Center
09:57PM 37.2047 -107.2475 82° East 527 606 39,000  Level Denver Center
09:58PM 37.2256 -107.0436 83° East 527 606 39,000  Level Denver Center
09:59PM 37.2447 -106.8692 82° East 527 606 39,000  Level Denver Center
10:00PM 37.2625 -106.6925 83° East 530 610 39,000  Level Denver Center
10:01PM 37.2844 -106.4853 82° East 536 617 39,000  Level Denver Center
10:02PM 37.3022 -106.3064 83° East 538 619 39,000  Level Denver Center
10:03PM 37.3222 -106.0950 83° East 545 627 39,000  Level Denver Center
10:04PM 37.3394 -105.9142 83° East 543 625 39,000  Level Denver Center
10:05PM 37.3758 -105.7058 78° East 547 629 39,000  Level Denver Center
10:06PM 37.4281 -105.5367 69° East 543 625 39,000  Level Denver Center
10:07PM 37.4781 -105.3631 70° East 549 632 39,000  Level Denver Center
10:08PM 37.5347 -105.1608 70° East 539 620 39,000  Level Denver Center
10:09PM 37.5831 -104.9917 70° East 537 618 39,000  Level Denver Center
10:10PM 37.6292 -104.8225 71° East 533 613 39,000  Level Denver Center
10:11PM 37.6833 -104.6253 71° East 532 612 39,000  Level Denver Center
10:12PM 37.7297 -104.4536 71° East 536 617 39,000  Level Denver Center
10:13PM 37.7842 -104.2539 71° East 534 615 39,000  Level Denver Center
10:14PM 37.8314 -104.0819 71° East 535 616 39,000  Level Denver Center
10:16PM 37.8775 -103.9092 71° East 534 615 39,000  Level Denver Center
10:17PM 37.9317 -103.7097 71° East 533 613 39,000  Level Denver Center
10:18PM 37.9769 -103.5372 72° East 535 616 39,000  Level Denver Center
10:19PM 38.0217 -103.3644 72° East 535 616 39,000  Level Denver Center
10:20PM 38.0747 -103.1642 71° East 535 616 39,000  Level Denver Center
10:21PM 38.1181 -102.9936 72° East 537 618 39,000  Level Denver Center
10:22PM 38.1692 -102.7942 72° East 533 613 39,000  Level Denver Center
10:23PM 38.2103 -102.6178 73° East 544 626 39,000  Level Denver Center
10:24PM 38.2433 -102.4078 79° East 542 624 39,000  Level Denver Center
10:25PM 38.2725 -102.2278 78° East 543 625 39,000  Level Denver Center
10:26PM 38.3025 -102.0450 78° East 550 633 39,000  Level Denver Center
10:27PM 38.3358 -101.8311 79° East 550 633 39,000  Level Denver Center
10:28PM 38.3658 -101.6447 78° East 558 642 39,000  Level Denver Center
10:29PM 38.3956 -101.4583 78° East 560 644 39,000  Level Denver Center
10:30PM 38.4294 -101.2400 79° East 561 646 39,000  Level Denver Center
10:31PM 38.4575 -101.0519 79° East 562 647 39,000  Level Denver Center
10:32PM 38.4914 -100.8272 79° East 569 655 39,000  Level Denver Center
10:33PM 38.5194 -100.6356 79° East 572 658 39,000  Level Denver Center
10:34PM 38.5483 -100.4447 79° East 571 657 39,000  Level Denver Center
10:35PM 38.5800 -100.2217 80° East 570 656 39,000  Level Denver Center
10:36PM 38.6081 -100.0308 79° East 570 656 39,000  Level Denver Center
10:37PM 38.6400 -99.8078 80° East 569 655 39,000  Level Denver Center
10:38PM 38.6658 -99.6161 80° East 571 657 39,000  Level Denver Center
10:39PM 38.6922 -99.4219 80° East 576 663 39,000  Level Denver Center
10:39PM 38.7019 -99.3414 81° East 575 662 39,000  Level Kansas City Center
10:40PM 38.7306 -99.1406 80° East 574 661 39,000  Level Kansas City Center
10:41PM 38.7581 -98.9397 80° East 572 658 39,000  Level Kansas City Center
10:42PM 38.7836 -98.7389 81° East 570 656 39,000  Level Kansas City Center
10:43PM 38.8106 -98.5394 80° East 569 655 39,000  Level Kansas City Center
10:45PM 38.8361 -98.3394 81° East 568 654 39,000  Level Kansas City Center
10:46PM 38.8608 -98.1403 81° East 565 650 39,000  Level Kansas City Center
10:47PM 38.8861 -97.9414 81° East 563 648 39,000  Level Kansas City Center
10:48PM 38.9147 -97.7142 81° East 564 649 39,000  Level Kansas City Center
10:49PM 38.9508 -97.5264 76° East 568 654 39,000  Level Kansas City Center
10:50PM 39.0000 -97.3414 71° East 571 657 39,000  Level Kansas City Center
10:51PM 39.0561 -97.1275 71° East 567 652 39,000  Level Kansas City Center
10:52PM 39.1047 -96.9431 71° East 567 652 39,000  Level Kansas City Center
10:53PM 39.1533 -96.7567 71° East 572 658 39,000  Level Kansas City Center
10:54PM 39.2086 -96.5397 72° East 570 656 39,000  Level Kansas City Center
10:55PM 39.2536 -96.3542 73° East 566 651 39,000  Level Kansas City Center
10:56PM 39.3075 -96.1453 72° East 564 649 39,000  Level Kansas City Center
10:57PM 39.3544 -95.9542 72° East 565 650 39,000  Level Kansas City Center
10:58PM 39.4011 -95.7703 72° East 562 647 39,000  Level Kansas City Center
10:59PM 39.4458 -95.5836 73° East 564 649 39,000  Level Kansas City Center
11:00PM 39.4989 -95.3669 72° East 563 648 39,000  Level Kansas City Center
11:01PM 39.5439 -95.1792 73° East 561 646 39,000  Level Kansas City Center
11:02PM 39.5883 -94.9939 73° East 559 643 39,000  Level Kansas City Center
11:03PM 39.6333 -94.8094 72° East 558 642 39,000  Level Kansas City Center
11:04PM 39.6844 -94.5942 73° East 558 642 39,000  Level Kansas City Center
11:05PM 39.7269 -94.4097 73° East 557 641 39,000  Level Kansas City Center
11:06PM 39.7700 -94.2258 73° East 555 639 39,000  Level Kansas City Center
11:07PM 39.8183 -94.0150 73° East 559 643 39,000  Level Kansas City Center
11:08PM 39.8597 -93.8231 74° East 557 641 39,000  Level Kansas City Center
11:09PM 39.9031 -93.6317 73° East 555 639 39,000  Level Kansas City Center
11:10PM 39.9472 -93.4436 73° East 550 633 39,000  Level Kansas City Center
11:11PM 39.9892 -93.2508 74° East 554 638 39,000  Level Kansas City Center
11:12PM 40.0328 -93.0592 73° East 558 642 39,000  Level Kansas City Center
11:13PM 40.0800 -92.8394 74° East 555 639 39,000  Level Kansas City Center
11:14PM 40.1194 -92.6542 74° East 554 638 39,000  Level Kansas City Center
11:15PM 40.1900 -92.4439 66° East 555 639 39,000  Level Kansas City Center
11:16PM 40.2486 -92.2792 65° Northeast 558 642 39,000  Level Kansas City Center
11:17PM 40.3136 -92.0969 65° Northeast 561 646 39,000  Level Kansas City Center
11:18PM 40.3783 -91.9128 65° Northeast 561 646 39,000  Level Kansas City Center
11:19PM 40.4436 -91.7289 65° Northeast 561 646 39,000  Level Kansas City Center
11:20PM 40.5194 -91.5061 66° East 560 644 39,000  Level Chicago Center
11:21PM 40.5822 -91.3200 66° East 561 646 39,000  Level Chicago Center
11:22PM 40.6508 -91.1214 65° Northeast 561 646 39,000 -240 Level Chicago Center
11:23PM 40.7142 -90.9353 66° East 557 641 38,600 -600 Descending Chicago Center
11:24PM 40.7756 -90.7494 66° East 553 636 37,800 -1,020 Descending Chicago Center
11:25PM 40.8394 -90.5633 66° East 555 639 36,600 -1,680 Descending Chicago Center
11:26PM 40.9014 -90.3756 66° East 554 638 34,400 -2,460 Descending Chicago Center
11:27PM 40.9756 -90.1536 66° East 559 643 31,600 -2,580 Descending Chicago Center
11:28PM 41.0281 -89.9933 66° East 557 641 29,200 -2,700 Descending Chicago Center
11:29PM 41.0889 -89.8067 67° East 548 631 26,200 -3,240 Descending Chicago Center
11:30PM 41.1592 -89.5933 66° East 526 605 22,700 -3,060 Descending Chicago Center
11:31PM 41.2250 -89.4283 62° Northeast 509 586 20,000 -2,640 Descending Chicago Center
11:32PM 41.2883 -89.2725 62° Northeast 486 559 17,400 -2,400 Descending Chicago Center
11:33PM 41.3403 -89.1375 63° Northeast 465 535 15,200 -1,980 Descending Chicago Center
11:34PM 41.3969 -88.9967 62° Northeast 436 502 13,400 -1,860 Descending Chicago Center
11:35PM 41.4597 -88.8389 62° Northeast 402 463 11,500 -1,200 Descending Chicago Center
11:36PM 41.5097 -88.7139 62° Northeast 382 440 11,000 -240 Descending Chicago Center
11:37PM 41.5578 -88.5922 62° Northeast 372 428 11,100  Climbing Chicago Center
11:38PM 41.6072 -88.4700 62° Northeast 372 428 11,000 -60 Descending Chicago Center
11:40PM 41.6403 -88.3392 71° East 371 427 11,000  Level Chicago Center
11:41PM 41.6758 -88.2078 70° East 372 428 11,000 -480 Level Chicago Center
11:42PM 41.7425 -88.1081 48° Northeast 361 415 10,100 -840 Descending Chicago Center
11:43PM 41.8181 -88.0506 30° Northeast 316 364 9,300 -960 Descending Chicago Center
11:44PM 41.8847 -87.9875 35° Northeast 298 343 8,200 -1,320 Descending Chicago Center
11:44PM 41.8833 -87.9167 91° East 291 335 7,300 -780 Descending Chicago TRACON
11:45PM 41.9000 -87.8167 77° East 270 311 7,000 -360 Descending Chicago TRACON
11:46PM 41.9000 -87.7167 90° East 227 261 6,600 -720 Descending Chicago TRACON
11:47PM 41.9167 -87.6667 66° East 210 242 5,500 -1,080 Descending Chicago TRACON
11:48PM 41.9500 -87.7167 312° West 168 193 4,300 -1,140 Descending Chicago TRACON